createdAt,value
2019-03-15T00:01:28.359Z,43.47
2019-03-15T00:04:00.055Z,50.37
2019-03-15T00:06:30.757Z,52.60
2019-03-15T00:09:01.397Z,45.03
2019-03-15T00:11:32.116Z,54.20
2019-03-15T00:14:02.738Z,46.30
2019-03-15T00:16:33.317Z,39.07
2019-03-15T00:19:03.972Z,55.33
2019-03-15T00:21:34.669Z,57.40
2019-03-15T00:24:05.635Z,61.03
2019-03-15T00:26:36.287Z,50.00
2019-03-15T00:29:06.905Z,58.27
2019-03-15T00:31:37.679Z,43.37
2019-03-15T00:34:09.390Z,76.70
2019-03-15T00:36:40.147Z,44.47
2019-03-15T00:39:10.757Z,61.40
2019-03-15T00:41:41.762Z,50.57
2019-03-15T00:44:12.633Z,54.90
2019-03-15T00:46:43.262Z,56.73
2019-03-15T00:49:13.859Z,52.10
2019-03-15T00:51:44.492Z,62.70
2019-03-15T00:54:15.132Z,45.23
2019-03-15T00:56:45.624Z,33.07
2019-03-15T00:59:16.213Z,44.60
2019-03-15T01:01:46.744Z,52.77
2019-03-15T01:04:17.424Z,39.83
2019-03-15T01:06:47.985Z,41.20
2019-03-15T01:09:18.632Z,49.03
2019-03-15T01:11:49.152Z,54.37
2019-03-15T01:14:19.716Z,47.77
2019-03-15T01:16:50.267Z,52.53
2019-03-15T01:19:20.838Z,47.40
2019-03-15T01:21:51.439Z,46.30
2019-03-15T01:24:21.906Z,47.10
2019-03-15T01:26:52.566Z,56.37
2019-03-15T01:29:23.150Z,65.10
2019-03-15T01:31:53.675Z,65.37
2019-03-15T01:34:24.266Z,48.00
2019-03-15T01:36:54.728Z,66.33
2019-03-15T01:39:25.236Z,49.03
2019-03-15T01:41:56.428Z,42.87
2019-03-15T01:44:26.921Z,62.80
2019-03-15T01:46:57.532Z,70.13
2019-03-15T01:49:28.044Z,53.17
2019-03-15T01:51:58.654Z,57.73
2019-03-15T01:54:29.180Z,55.90
2019-03-15T01:56:59.766Z,62.00
2019-03-15T01:59:30.366Z,44.33
2019-03-15T02:02:00.892Z,47.77
2019-03-15T02:04:31.941Z,37.87
2019-03-15T02:07:02.567Z,48.33
2019-03-15T02:09:33.144Z,58.97
2019-03-15T02:12:03.719Z,54.30
2019-03-15T02:14:35.208Z,42.17
2019-03-15T02:17:05.773Z,56.20
2019-03-15T02:19:36.383Z,63.50
2019-03-15T02:22:06.887Z,54.80
2019-03-15T02:24:37.489Z,43.90
2019-03-15T02:27:08.094Z,68.33
2019-03-15T02:29:38.667Z,46.43
2019-03-15T02:32:09.243Z,44.43
2019-03-15T02:34:39.793Z,43.93
2019-03-15T02:37:10.391Z,67.37
2019-03-15T02:39:40.985Z,52.30
2019-03-15T02:42:11.561Z,43.10
2019-03-15T02:44:42.143Z,55.13
2019-03-15T02:47:12.709Z,57.20
2019-03-15T02:49:43.162Z,50.20
2019-03-15T02:52:13.722Z,74.00
2019-03-15T02:54:44.350Z,47.10
2019-03-15T02:57:14.868Z,56.33
2019-03-15T02:59:45.439Z,48.20
2019-03-15T03:02:15.957Z,41.40
2019-03-15T03:04:46.527Z,53.33
2019-03-15T03:07:17.114Z,51.87
2019-03-15T03:09:47.713Z,44.43
2019-03-15T03:12:18.286Z,52.10
2019-03-15T03:14:48.863Z,50.03
2019-03-15T03:17:19.471Z,54.67
2019-03-15T03:19:50.026Z,41.67
2019-03-15T03:22:20.624Z,40.63
2019-03-15T03:24:51.174Z,44.80
2019-03-15T03:27:21.773Z,41.57
2019-03-15T03:29:52.364Z,39.13
2019-03-15T03:32:22.936Z,35.93
2019-03-15T03:34:53.444Z,37.20
2019-03-15T03:37:24.203Z,32.50
2019-03-15T03:39:54.831Z,40.40
2019-03-15T03:42:25.416Z,38.83
2019-03-15T03:44:57.648Z,51.57
2019-03-15T03:50:24.045Z,36.10
2019-03-15T03:52:54.620Z,33.33
2019-03-15T03:55:25.562Z,33.33
2019-03-15T03:57:57.139Z,41.77
2019-03-15T04:00:28.165Z,38.77
2019-03-15T04:02:58.737Z,41.23
2019-03-15T04:08:25.301Z,54.20
2019-03-15T04:10:56.299Z,38.10
2019-03-15T04:13:26.896Z,39.17
2019-03-15T04:15:57.352Z,43.37
2019-03-15T04:18:28.195Z,33.20
2019-03-15T04:20:58.864Z,29.70
2019-03-15T04:23:29.435Z,30.17
2019-03-15T04:26:01.744Z,29.27
2019-03-15T04:28:33.215Z,43.50
2019-03-15T04:31:03.734Z,42.93
2019-03-15T04:33:34.403Z,35.23
2019-03-15T04:36:05.979Z,31.40
2019-03-15T04:38:36.524Z,35.10
2019-03-15T04:41:07.029Z,39.07
2019-03-15T04:46:27.185Z,33.30
2019-03-15T04:48:57.762Z,30.83
2019-03-15T04:51:28.220Z,33.70
2019-03-15T04:53:59.833Z,37.97
2019-03-15T04:56:30.491Z,47.80
2019-03-15T04:59:01.028Z,34.33
2019-03-15T05:01:31.580Z,45.30
2019-03-15T05:04:02.087Z,38.53
2019-03-15T05:06:32.657Z,22.33
2019-03-15T05:09:04.321Z,44.13
2019-03-15T05:11:34.960Z,28.40
2019-03-15T05:14:08.288Z,26.90
2019-03-15T05:19:28.012Z,35.80
2019-03-15T05:21:58.556Z,24.23
2019-03-15T05:24:29.087Z,30.23
2019-03-15T05:26:59.592Z,27.17
2019-03-15T05:29:30.172Z,31.43
2019-03-15T05:32:00.766Z,31.40
2019-03-15T05:34:31.333Z,29.53
2019-03-15T05:37:02.021Z,30.50
2019-03-15T05:39:32.615Z,38.40
2019-03-15T05:42:03.197Z,34.40
2019-03-15T05:44:34.786Z,30.00
2019-03-15T05:47:05.358Z,27.73
2019-03-15T05:49:35.923Z,42.90
2019-03-15T05:52:06.445Z,44.33
2019-03-15T05:54:36.999Z,37.90
2019-03-15T05:57:07.654Z,25.83
2019-03-15T05:59:38.211Z,32.37
2019-03-15T06:02:08.829Z,27.70
2019-03-15T06:04:39.375Z,25.90
2019-03-15T06:07:10.003Z,27.43
2019-03-15T06:09:40.548Z,36.50
2019-03-15T06:12:11.125Z,24.53
2019-03-15T06:14:41.695Z,25.23
2019-03-15T06:17:12.193Z,31.00
2019-03-15T06:19:42.805Z,28.50
2019-03-15T06:22:14.439Z,24.30
2019-03-15T06:24:45.047Z,24.17
2019-03-15T06:27:15.619Z,22.97
2019-03-15T06:29:46.149Z,22.70
2019-03-15T06:32:16.745Z,27.37
2019-03-15T06:34:47.320Z,23.27
2019-03-15T06:40:14.212Z,24.83
2019-03-15T06:42:47.453Z,26.37
2019-03-15T06:45:17.930Z,40.27
2019-03-15T06:47:49.189Z,24.90
2019-03-15T06:53:16.309Z,19.00
2019-03-15T06:58:21.784Z,32.50
2019-03-15T07:00:54.773Z,28.20
2019-03-15T07:03:24.598Z,30.93
2019-03-15T07:05:55.186Z,26.17
2019-03-15T07:08:25.800Z,32.47
2019-03-15T07:10:56.393Z,33.20
2019-03-15T07:13:27.008Z,29.43
2019-03-15T07:15:57.588Z,31.07
2019-03-15T07:18:28.180Z,30.77
2019-03-15T07:20:58.751Z,29.60
2019-03-15T07:23:29.315Z,23.57
2019-03-15T07:25:59.821Z,28.87
2019-03-15T07:28:30.353Z,24.87
2019-03-15T07:31:00.940Z,24.53
2019-03-15T07:33:31.469Z,20.27
2019-03-15T07:36:01.956Z,22.43
2019-03-15T07:38:32.436Z,20.67
2019-03-15T07:43:54.452Z,31.53
2019-03-15T07:46:25.001Z,27.37
2019-03-15T07:48:55.487Z,31.60
2019-03-15T07:51:26.068Z,36.33
2019-03-15T07:53:56.628Z,32.43
2019-03-15T07:56:28.637Z,26.33
2019-03-15T07:58:59.258Z,23.03
2019-03-15T08:01:29.840Z,30.73
2019-03-15T08:04:00.389Z,26.67
2019-03-15T08:06:35.005Z,26.93
2019-03-15T08:09:03.668Z,23.70
2019-03-15T08:11:34.211Z,24.30
2019-03-15T08:14:04.904Z,39.83
2019-03-15T08:16:35.396Z,22.33
2019-03-15T08:19:06.062Z,25.83
2019-03-15T08:21:36.616Z,21.87
2019-03-15T08:24:07.116Z,24.37
2019-03-15T08:26:37.683Z,22.57
2019-03-15T08:29:09.931Z,21.43
2019-03-15T08:31:40.359Z,32.90
2019-03-15T08:34:11.345Z,27.67
2019-03-15T08:36:41.871Z,21.33
2019-03-15T08:39:12.419Z,35.07
2019-03-15T08:41:43.010Z,27.73
2019-03-15T08:44:13.545Z,39.03
2019-03-15T08:46:44.111Z,32.43
2019-03-15T08:49:14.686Z,26.03
2019-03-15T08:51:45.259Z,30.77
2019-03-15T08:54:15.760Z,16.27
2019-03-15T08:56:46.246Z,23.93
2019-03-15T08:59:16.768Z,20.23
2019-03-15T09:01:47.305Z,28.93
2019-03-15T09:07:06.631Z,21.87
2019-03-15T09:09:37.199Z,15.33
2019-03-15T09:12:07.763Z,23.37
2019-03-15T09:14:38.315Z,23.63
2019-03-15T09:17:08.951Z,18.47
2019-03-15T09:19:39.500Z,17.60
2019-03-15T09:22:10.057Z,23.60
2019-03-15T09:27:29.915Z,20.77
2019-03-15T09:30:00.476Z,28.83
2019-03-15T09:32:31.039Z,19.00
2019-03-15T09:35:01.541Z,11.70
2019-03-15T09:37:33.001Z,12.97
2019-03-15T09:40:03.536Z,20.70
2019-03-15T09:42:34.126Z,25.07
2019-03-15T09:45:04.824Z,13.53
2019-03-15T09:47:35.425Z,15.13
2019-03-15T09:50:20.689Z,11.77
2019-03-15T09:52:39.750Z,20.17
2019-03-15T09:55:10.563Z,24.20
2019-03-15T09:57:41.137Z,35.40
2019-03-15T10:00:14.296Z,14.40
2019-03-15T10:02:45.160Z,21.73
2019-03-15T10:05:15.749Z,22.73
2019-03-15T10:07:47.482Z,22.50
2019-03-15T10:10:19.119Z,24.83
2019-03-15T10:12:49.849Z,15.93
2019-03-15T10:15:20.347Z,19.07
2019-03-15T10:17:50.920Z,17.17
2019-03-15T10:20:21.456Z,15.23
2019-03-15T10:23:05.601Z,17.17
2019-03-15T10:25:24.203Z,24.93
2019-03-15T10:27:54.730Z,19.30
2019-03-15T10:30:25.247Z,26.03
2019-03-15T10:32:55.745Z,23.13
2019-03-15T10:35:26.281Z,24.63
2019-03-15T10:37:56.859Z,26.40
2019-03-15T10:40:27.424Z,18.90
2019-03-15T10:42:58.013Z,24.37
2019-03-15T10:45:28.572Z,14.30
2019-03-15T10:47:59.080Z,17.20
2019-03-15T10:50:29.579Z,19.43
2019-03-15T10:53:00.072Z,18.20
2019-03-15T10:55:30.641Z,12.67
2019-03-15T10:58:01.215Z,9.97
2019-03-15T11:00:31.711Z,10.43
2019-03-15T11:03:02.263Z,16.17
2019-03-15T11:05:32.848Z,21.70
2019-03-15T11:08:03.403Z,11.07
2019-03-15T11:10:33.899Z,13.30
2019-03-15T11:13:04.359Z,14.87
2019-03-15T11:15:34.940Z,19.27
2019-03-15T11:18:05.658Z,14.50
2019-03-15T11:20:36.124Z,9.57
2019-03-15T11:23:06.721Z,12.40
2019-03-15T11:25:37.317Z,10.33
2019-03-15T11:28:07.934Z,13.50
2019-03-15T11:30:38.462Z,15.83
2019-03-15T11:33:08.949Z,9.73
2019-03-15T11:35:39.404Z,17.17
2019-03-15T11:38:09.943Z,10.13
2019-03-15T11:40:40.517Z,18.73
2019-03-15T11:43:11.095Z,13.93
2019-03-15T11:45:41.661Z,14.50
2019-03-15T11:48:12.251Z,10.83
2019-03-15T11:50:42.767Z,12.60
2019-03-15T11:53:13.313Z,26.23
2019-03-15T11:55:43.939Z,14.57
2019-03-15T11:58:14.548Z,22.40
2019-03-15T12:00:45.060Z,18.87
2019-03-15T12:03:15.915Z,27.07
2019-03-15T12:05:46.432Z,16.47
2019-03-15T12:08:16.888Z,13.70
2019-03-15T12:10:47.599Z,19.60
2019-03-15T12:13:18.224Z,16.10
2019-03-15T12:15:48.827Z,23.30
2019-03-15T12:18:19.303Z,14.87
2019-03-15T12:20:49.859Z,20.10
2019-03-15T12:23:20.432Z,14.30
2019-03-15T12:25:51.033Z,20.57
2019-03-15T12:28:21.659Z,8.57
2019-03-15T12:30:52.262Z,22.00
2019-03-15T12:33:22.776Z,14.00
2019-03-15T12:35:53.367Z,19.20
2019-03-15T12:38:23.955Z,15.13
2019-03-15T12:40:54.456Z,16.57
2019-03-15T12:43:24.944Z,18.63
2019-03-15T12:45:55.476Z,18.93
2019-03-15T12:48:26.012Z,18.93
2019-03-15T12:50:56.501Z,21.43
2019-03-15T12:53:27.091Z,15.70
2019-03-15T12:55:57.634Z,14.03
2019-03-15T12:58:28.277Z,16.70
2019-03-15T13:00:58.827Z,16.27
2019-03-15T13:03:29.305Z,21.47
2019-03-15T13:05:59.788Z,15.23
2019-03-15T13:08:30.495Z,17.17
2019-03-15T13:11:01.101Z,15.63
2019-03-15T13:13:31.650Z,18.30
2019-03-15T13:16:02.152Z,20.73
2019-03-15T13:18:32.691Z,13.77
2019-03-15T13:21:03.281Z,26.17
2019-03-15T13:23:33.913Z,17.50
2019-03-15T13:26:04.385Z,24.20
2019-03-15T13:28:34.949Z,16.77
2019-03-15T13:31:05.517Z,18.67
2019-03-15T13:33:36.055Z,17.87
2019-03-15T13:36:06.636Z,24.97
2019-03-15T13:38:38.215Z,16.07
2019-03-15T13:41:08.738Z,11.03
2019-03-15T13:43:39.445Z,16.17
2019-03-15T13:46:10.016Z,15.47
2019-03-15T13:48:40.597Z,10.50
2019-03-15T13:51:11.188Z,11.70
2019-03-15T13:53:41.710Z,8.10
2019-03-15T13:56:12.203Z,8.27
2019-03-15T13:58:42.683Z,4.43
2019-03-15T14:01:13.280Z,4.93
2019-03-15T14:03:43.816Z,4.87
2019-03-15T14:06:14.323Z,3.27
2019-03-15T14:08:44.852Z,3.50
2019-03-15T14:11:15.419Z,1.93
2019-03-15T14:13:46.000Z,1.50
2019-03-15T14:16:16.675Z,1.70
2019-03-15T14:18:47.480Z,0.87
2019-03-15T14:21:18.073Z,1.03
2019-03-15T14:23:48.659Z,0.77
2019-03-15T14:26:19.232Z,2.97
2019-03-15T14:28:49.869Z,1.50
2019-03-15T14:31:21.635Z,1.73
2019-03-15T14:33:52.431Z,1.67
2019-03-15T14:36:22.957Z,1.43
2019-03-15T14:38:53.693Z,0.43
2019-03-15T14:41:24.302Z,0.60
2019-03-15T14:43:54.903Z,1.77
2019-03-15T14:46:25.389Z,1.53
2019-03-15T14:48:55.915Z,1.03
2019-03-15T14:51:26.478Z,1.60
2019-03-15T14:53:57.004Z,0.70
2019-03-15T14:56:27.541Z,1.70
2019-03-15T14:58:58.131Z,1.63
2019-03-15T15:01:28.747Z,1.90
2019-03-15T15:03:59.459Z,1.17
2019-03-15T15:06:30.084Z,1.00
2019-03-15T15:09:00.623Z,1.43
2019-03-15T15:11:31.468Z,0.67
2019-03-15T15:14:02.157Z,1.37
2019-03-15T15:16:32.807Z,2.67
2019-03-15T15:19:03.426Z,2.87
2019-03-15T15:21:34.040Z,2.03
2019-03-15T15:24:04.684Z,3.60
2019-03-15T15:26:35.365Z,1.63
2019-03-15T15:29:06.047Z,1.13
2019-03-15T15:31:36.635Z,1.90
2019-03-15T15:34:07.204Z,3.97
2019-03-15T15:36:37.770Z,1.23
2019-03-15T15:39:09.256Z,7.07
2019-03-15T15:41:39.807Z,4.13
2019-03-15T15:44:10.337Z,3.33
2019-03-15T15:46:40.921Z,1.13
2019-03-15T15:49:11.504Z,3.83
2019-03-15T15:51:42.149Z,3.47
2019-03-15T15:54:12.664Z,1.83
2019-03-15T15:56:43.273Z,1.70
2019-03-15T15:59:13.921Z,0.73
2019-03-15T16:01:44.551Z,1.77
2019-03-15T16:04:15.167Z,2.73
2019-03-15T16:06:45.795Z,0.60
2019-03-15T16:09:16.440Z,3.83
2019-03-15T16:11:47.326Z,1.97
2019-03-15T16:14:17.928Z,3.10
2019-03-15T16:16:48.454Z,6.77
2019-03-15T16:19:19.044Z,3.53
2019-03-15T16:21:49.496Z,1.00
2019-03-15T16:24:20.050Z,3.93
2019-03-15T16:26:50.597Z,1.43
2019-03-15T16:29:21.184Z,2.53
2019-03-15T16:31:51.775Z,1.93
2019-03-15T16:34:22.356Z,4.57
2019-03-15T16:36:52.840Z,1.20
2019-03-15T16:39:23.473Z,2.53
2019-03-15T16:41:54.000Z,3.77
2019-03-15T16:44:24.557Z,3.03
2019-03-15T16:46:55.111Z,1.63
2019-03-15T16:49:25.740Z,4.17
2019-03-15T16:51:56.340Z,3.73
2019-03-15T16:54:26.981Z,0.90
2019-03-15T16:56:57.584Z,1.87
2019-03-15T16:59:28.133Z,1.00
2019-03-15T17:01:58.771Z,1.70
2019-03-15T17:04:29.307Z,1.03
2019-03-15T17:07:00.956Z,1.97
2019-03-15T17:09:31.565Z,1.57
2019-03-15T17:12:02.123Z,1.40
2019-03-15T17:17:15.124Z,0.97
2019-03-15T17:19:45.607Z,1.10
2019-03-15T17:22:16.141Z,2.77
2019-03-15T17:24:46.721Z,3.73
2019-03-15T17:27:17.342Z,1.07
2019-03-15T17:29:47.827Z,2.90
2019-03-15T17:32:18.381Z,1.43
2019-03-15T17:34:48.936Z,1.00
2019-03-15T17:37:19.479Z,0.90
2019-03-15T17:39:50.114Z,1.33
2019-03-15T17:45:17.384Z,1.30
2019-03-15T17:47:48.135Z,1.30
2019-03-15T17:50:18.742Z,1.73
2019-03-15T17:52:49.306Z,2.37
2019-03-15T17:55:20.037Z,2.33
2019-03-15T17:57:50.673Z,1.40
2019-03-15T18:00:34.618Z,3.33
2019-03-15T18:03:20.225Z,2.17
2019-03-15T18:05:38.332Z,2.07
2019-03-15T18:08:08.855Z,2.70
2019-03-15T18:10:39.425Z,5.97
2019-03-15T18:13:10.071Z,2.77
2019-03-15T18:15:40.857Z,2.80
2019-03-15T18:18:11.463Z,1.80
2019-03-15T18:20:42.098Z,2.67
2019-03-15T18:23:12.754Z,2.17
2019-03-15T18:25:43.391Z,3.47
2019-03-15T18:28:14.052Z,2.40
2019-03-15T18:30:44.741Z,2.90
2019-03-15T18:33:15.355Z,5.80
2019-03-15T18:35:45.953Z,3.10
2019-03-15T18:38:16.527Z,4.70
2019-03-15T18:40:47.155Z,3.03
2019-03-15T18:43:18.700Z,3.30
2019-03-15T18:45:49.314Z,5.57
2019-03-15T18:48:19.847Z,4.40
2019-03-15T18:50:50.411Z,6.83
2019-03-15T18:53:20.924Z,4.53
2019-03-15T18:55:51.598Z,6.70
2019-03-15T18:58:22.219Z,6.53
2019-03-15T19:00:52.615Z,8.50
2019-03-15T19:03:23.245Z,6.50
2019-03-15T19:05:53.840Z,6.73
2019-03-15T19:08:24.410Z,10.90
2019-03-15T19:10:54.997Z,10.70
2019-03-15T19:13:26.555Z,8.03
2019-03-15T19:15:57.183Z,5.57
2019-03-15T19:21:16.931Z,4.57
2019-03-15T19:23:47.567Z,3.10
2019-03-15T19:29:07.668Z,5.40
2019-03-15T19:31:38.149Z,2.97
2019-03-15T19:34:08.731Z,3.37
2019-03-15T19:36:39.368Z,4.40
2019-03-15T19:39:09.892Z,3.73
2019-03-15T19:41:40.458Z,4.53
2019-03-15T19:44:11.020Z,4.60
2019-03-15T19:46:41.579Z,5.40
2019-03-15T19:49:12.133Z,3.67
2019-03-15T19:51:42.746Z,4.13
2019-03-15T19:54:13.305Z,5.73
2019-03-15T19:56:43.863Z,3.53
2019-03-15T19:59:14.443Z,4.07
2019-03-15T20:01:45.028Z,4.97
2019-03-15T20:04:15.641Z,4.37
2019-03-15T20:06:46.159Z,3.67
2019-03-15T20:09:16.778Z,3.07
2019-03-15T20:11:47.303Z,3.87
2019-03-15T20:14:17.874Z,2.40
2019-03-15T20:16:48.543Z,5.47
2019-03-15T20:19:19.078Z,5.00
2019-03-15T20:21:49.661Z,2.70
2019-03-15T20:24:20.204Z,4.93
2019-03-15T20:26:50.824Z,4.83
2019-03-15T20:29:21.349Z,6.03
2019-03-15T20:31:51.900Z,2.53
2019-03-15T20:34:22.512Z,2.33
2019-03-15T20:36:53.065Z,2.20
2019-03-15T20:39:23.659Z,2.53
2019-03-15T20:41:54.377Z,1.80
2019-03-15T20:44:28.782Z,2.00
2019-03-15T20:46:58.104Z,2.40
2019-03-15T20:49:28.674Z,2.77
2019-03-15T20:51:59.297Z,2.00
2019-03-15T20:54:30.057Z,2.27
2019-03-15T20:57:00.634Z,2.00
2019-03-15T20:59:31.203Z,2.27
2019-03-15T21:02:01.817Z,1.90
2019-03-15T21:04:32.373Z,1.63
2019-03-15T21:07:02.993Z,1.57
2019-03-15T21:09:33.594Z,1.20
2019-03-15T21:12:04.184Z,1.07
2019-03-15T21:14:34.639Z,0.50
2019-03-15T21:17:05.199Z,0.93
2019-03-15T21:19:35.801Z,0.80
2019-03-15T21:22:06.286Z,0.60
2019-03-15T21:24:36.777Z,0.60
2019-03-15T21:27:07.335Z,2.37
2019-03-15T21:29:37.873Z,1.40
2019-03-15T21:32:08.463Z,2.20
2019-03-15T21:34:39.125Z,7.17
2019-03-15T21:37:09.660Z,9.07
2019-03-15T21:39:40.207Z,6.83
2019-03-15T21:42:11.732Z,13.80
2019-03-15T21:44:42.309Z,10.30
2019-03-15T21:47:12.892Z,16.37
2019-03-15T21:49:43.487Z,33.13
2019-03-15T21:52:14.031Z,23.57
2019-03-15T21:54:44.601Z,21.80
2019-03-15T21:57:15.212Z,22.60
2019-03-15T21:59:45.825Z,30.37
2019-03-15T22:02:16.437Z,18.60
2019-03-15T22:04:47.040Z,28.80
2019-03-15T22:07:17.601Z,26.40
2019-03-15T22:09:48.121Z,18.43
2019-03-15T22:12:18.607Z,20.50
2019-03-15T22:14:49.202Z,18.47
2019-03-15T22:17:19.755Z,20.00
2019-03-15T22:19:50.274Z,18.97
2019-03-15T22:22:20.951Z,16.33
2019-03-15T22:24:51.659Z,24.93
2019-03-15T22:27:22.295Z,11.17
2019-03-15T22:29:53.897Z,13.80
2019-03-15T22:32:24.671Z,10.80
2019-03-15T22:34:55.221Z,18.00
2019-03-15T22:37:25.797Z,15.83
2019-03-15T22:39:56.343Z,25.63
2019-03-15T22:42:29.503Z,27.40
2019-03-15T22:45:00.040Z,20.53
2019-03-15T22:47:30.623Z,12.97
2019-03-15T22:50:01.240Z,18.40
2019-03-15T22:52:31.849Z,16.53
2019-03-15T22:55:02.514Z,17.80
2019-03-15T22:57:33.056Z,17.27
2019-03-15T23:00:03.773Z,15.90
2019-03-15T23:02:36.011Z,13.87
2019-03-15T23:05:06.861Z,15.57
2019-03-15T23:07:37.433Z,16.97
2019-03-15T23:10:08.555Z,14.13
2019-03-15T23:12:39.170Z,16.30
2019-03-15T23:20:34.546Z,21.27
2019-03-15T23:23:05.023Z,12.80
2019-03-15T23:25:35.671Z,22.23
2019-03-15T23:28:06.192Z,12.83
2019-03-15T23:30:36.798Z,21.17
2019-03-15T23:33:07.415Z,16.60
2019-03-15T23:38:33.801Z,21.60
2019-03-15T23:41:04.294Z,15.87
2019-03-15T23:43:35.912Z,19.03
2019-03-15T23:46:06.503Z,28.17
2019-03-15T23:48:37.022Z,18.20
2019-03-15T23:51:07.703Z,21.63
2019-03-15T23:53:38.262Z,27.80
2019-03-15T23:56:08.833Z,21.37
2019-03-15T23:58:39.336Z,18.03
